Wanamaker, South Dakota
Current Conditions -  °F | °C
As of 3:55 AM on Wednesday 26 Nov 2014 (Local Time) from KPHP Reporting Station
Overcast Overcast  
Wind Chill: 11°   Ceiling: 1800
Heat Index: 25°   Visibility: 10mi
Dew Point: 19°   Wind: 20mph
Humidity: 78%   Direction: 350°N
Pressure: 30.17"   Gusts: 28mph
Location:  43.4752°N, 101.081°W
Report Text: KPHP 260955Z AUTO 35017G24KT 10SM OVC018 M04/M07 A3017 RMK AO2 PK WND 35027/0916 SLP236 T10391072
Loading
Personal Weather Stations






























Interactive Weather Map New forecast layout! Learn more

10-Day Weather Forecast

Advertisements
Track Severe Weather on mobile